Time;durP1;ratioP1;P1;durP2;ratioP2;P2;SDS_P1;SDS_P2;PMS_P1;PMS_P2;Temp;Humidity;BMP_temperature;BMP_pressure;BME280_temperature;BME280_humidity;BME280_pressure;Samples;Min_cycle;Max_cycle;Signal;HPM_P1;HPM_P2
2021/05/05 00:01:29;;;;;;;3.70;1.80;;;8.50;99.90;;;;;;6251422;28;20069;-79
2021/05/05 00:04:30;;;;;;;3.42;1.67;;;8.50;99.90;;;;;;6252320;28;20092;-79
2021/05/05 00:07:32;;;;;;;7.60;3.28;;;8.50;99.90;;;;;;6252932;28;20152;-78
2021/05/05 00:10:33;;;;;;;2.10;1.88;;;8.50;99.90;;;;;;6251763;28;20128;-78
2021/05/05 00:13:35;;;;;;;2.30;1.90;;;8.50;99.90;;;;;;6252495;28;20065;-78
2021/05/05 00:16:37;;;;;;;6.35;1.75;;;8.50;99.90;;;;;;6251832;28;20050;-78
2021/05/05 00:19:38;;;;;;;4.55;1.60;;;8.50;99.90;;;;;;6252889;28;20136;-78
2021/05/05 00:22:40;;;;;;;6.28;2.45;;;8.50;99.90;;;;;;6252697;28;20416;-78
2021/05/05 00:25:42;;;;;;;5.13;1.95;;;8.50;99.90;;;;;;6250421;28;20124;-78
2021/05/05 00:28:43;;;;;;;5.75;1.90;;;8.50;99.90;;;;;;6252213;28;20118;-78
2021/05/05 00:31:44;;;;;;;4.85;1.75;;;8.50;99.90;;;;;;6252715;28;20733;-78
2021/05/05 00:34:47;;;;;;;4.70;1.95;;;8.40;99.90;;;;;;6252019;28;20072;-78
2021/05/05 00:37:49;;;;;;;3.33;1.73;;;8.40;99.90;;;;;;6253667;28;20083;-78
2021/05/05 00:40:50;;;;;;;8.20;2.55;;;8.30;99.90;;;;;;6253740;28;20069;-78
2021/05/05 00:43:52;;;;;;;7.53;2.75;;;8.30;99.90;;;;;;6254352;28;20052;-78
2021/05/05 00:46:53;;;;;;;6.70;2.80;;;8.20;99.90;;;;;;6254764;28;20053;-78
2021/05/05 00:49:55;;;;;;;6.65;1.90;;;8.10;99.90;;;;;;6254252;28;20095;-78
2021/05/05 00:52:57;;;;;;;5.10;3.55;;;8.20;99.90;;;;;;6250603;28;20124;-79
2021/05/05 00:55:58;;;;;;;4.03;2.42;;;8.10;99.90;;;;;;6250542;28;20072;-78
2021/05/05 00:59:00;;;;;;;4.97;2.45;;;8.10;99.90;;;;;;6250691;28;20581;-78
2021/05/05 01:02:01;;;;;;;3.05;1.92;;;8.10;99.90;;;;;;6250048;28;20124;-78
2021/05/05 01:05:03;;;;;;;3.92;2.13;;;8.10;99.90;;;;;;6250464;28;20391;-78
2021/05/05 01:08:07;;;;;;;8.77;2.55;;;8.10;99.90;;;;;;6250430;28;20069;-78
2021/05/05 01:11:08;;;;;;;11.48;2.53;;;8.10;99.90;;;;;;6250714;28;20085;-79
2021/05/05 01:14:10;;;;;;;4.50;2.05;;;8.10;99.90;;;;;;6249456;28;20069;-78
2021/05/05 01:17:11;;;;;;;3.22;2.78;;;8.00;99.90;;;;;;6253417;28;20120;-78
2021/05/05 01:20:14;;;;;;;2.58;2.05;;;8.10;99.90;;;;;;6252196;28;20049;-79
2021/05/05 01:23:16;;;;;;;15.02;2.67;;;8.10;99.90;;;;;;6251040;28;20134;-78
2021/05/05 01:26:18;;;;;;;9.50;2.70;;;8.10;99.90;;;;;;6250774;28;20196;-78
2021/05/05 01:29:19;;;;;;;8.65;2.85;;;8.10;99.90;;;;;;6249709;28;20136;-79
2021/05/05 01:32:21;;;;;;;4.43;2.13;;;8.10;99.90;;;;;;6249857;28;20061;-78
2021/05/05 01:35:24;;;;;;;11.30;2.53;;;8.10;99.90;;;;;;6250254;28;20060;-78
2021/05/05 01:38:27;;;;;;;6.55;3.42;;;8.10;99.90;;;;;;6249493;28;20060;-78
2021/05/05 01:41:28;;;;;;;9.02;3.72;;;8.00;99.90;;;;;;6249265;28;20130;-78
2021/05/05 01:44:32;;;;;;;4.80;3.17;;;8.00;99.90;;;;;;6250411;28;20045;-78
2021/05/05 01:47:34;;;;;;;7.15;2.50;;;8.10;99.90;;;;;;6250330;28;20140;-78
2021/05/05 01:50:36;;;;;;;3.63;3.33;;;8.00;99.90;;;;;;6249321;28;20128;-78
2021/05/05 01:53:38;;;;;;;9.80;2.28;;;8.00;99.90;;;;;;6249030;28;20106;-78
2021/05/05 01:56:39;;;;;;;6.82;3.38;;;8.00;99.90;;;;;;6249047;28;20128;-78
2021/05/05 01:59:41;;;;;;;8.40;4.28;;;7.90;99.90;;;;;;6248961;28;20095;-78
2021/05/05 02:02:42;;;;;;;10.63;3.53;;;7.90;99.90;;;;;;6250380;28;20041;-78
2021/05/05 02:05:44;;;;;;;6.75;3.22;;;7.90;99.90;;;;;;6249244;28;20478;-78
2021/05/05 02:08:46;;;;;;;9.73;4.90;;;7.80;99.90;;;;;;6248522;28;20064;-79
2021/05/05 02:11:47;;;;;;;6.25;2.55;;;7.80;99.90;;;;;;6248770;28;20131;-78
2021/05/05 02:14:49;;;;;;;9.25;5.05;;;7.80;99.90;;;;;;6249401;28;20142;-78
2021/05/05 02:17:51;;;;;;;10.35;3.22;;;7.80;99.90;;;;;;6248231;28;20049;-78
2021/05/05 02:20:53;;;;;;;10.13;3.30;;;7.80;99.90;;;;;;6248878;28;20053;-78
2021/05/05 02:23:55;;;;;;;4.30;2.50;;;7.80;99.90;;;;;;6248081;28;20045;-77
2021/05/05 02:26:56;;;;;;;8.02;2.60;;;7.80;99.90;;;;;;6247605;28;20080;-78
2021/05/05 02:29:58;;;;;;;4.80;2.67;;;7.80;99.90;;;;;;6247324;28;20045;-78
2021/05/05 02:33:00;;;;;;;11.63;3.40;;;7.80;99.90;;;;;;6247237;28;20460;-78
2021/05/05 02:36:01;;;;;;;8.05;3.33;;;7.70;99.90;;;;;;6247212;28;20091;-77
2021/05/05 02:39:06;;;;;;;7.20;3.03;;;7.80;99.90;;;;;;6247671;28;20050;-78
2021/05/05 02:42:10;;;;;;;5.47;2.55;;;7.80;99.90;;;;;;6246873;28;20096;-78
2021/05/05 02:45:12;;;;;;;5.28;3.70;;;7.80;99.90;;;;;;6246976;28;20479;-78
2021/05/05 02:48:13;;;;;;;6.80;3.10;;;7.70;99.90;;;;;;6246965;28;20120;-78
2021/05/05 02:51:15;;;;;;;7.00;3.03;;;7.70;99.90;;;;;;6247128;28;20081;-78
2021/05/05 02:54:17;;;;;;;6.80;3.00;;;7.80;99.90;;;;;;6247036;28;20084;-78
2021/05/05 02:57:18;;;;;;;3.45;3.15;;;7.80;99.90;;;;;;6247739;28;20041;-77
2021/05/05 03:00:20;;;;;;;9.90;3.38;;;7.80;99.90;;;;;;6246649;28;20073;-78
2021/05/05 03:03:22;;;;;;;8.90;3.67;;;7.80;99.90;;;;;;6247657;28;20041;-78
2021/05/05 03:06:23;;;;;;;8.27;4.07;;;7.80;99.90;;;;;;6246566;28;20426;-78
2021/05/05 03:09:27;;;;;;;13.48;3.33;;;7.80;99.90;;;;;;6246514;28;20111;-78
2021/05/05 03:12:28;;;;;;;3.85;2.58;;;7.80;99.90;;;;;;6246786;28;20418;-78
2021/05/05 03:15:29;;;;;;;9.73;3.22;;;7.70;99.90;;;;;;6247624;28;20140;-78
2021/05/05 03:18:31;;;;;;;8.48;3.55;;;7.70;99.90;;;;;;6246726;28;20060;-77
2021/05/05 03:21:33;;;;;;;7.22;3.30;;;7.70;99.90;;;;;;6246454;28;20065;-77
2021/05/05 03:24:35;;;;;;;7.43;3.60;;;7.70;99.90;;;;;;6246995;28;20124;-77
2021/05/05 03:27:36;;;;;;;7.30;3.63;;;7.80;99.90;;;;;;6247146;28;20140;-78
2021/05/05 03:30:38;;;;;;;4.85;3.70;;;7.70;99.90;;;;;;6250978;28;20045;-78
2021/05/05 03:33:39;;;;;;;9.68;4.35;;;7.70;99.90;;;;;;6254589;28;20045;-79
2021/05/05 03:36:41;;;;;;;8.35;3.72;;;7.70;99.90;;;;;;6253162;28;20042;-78
2021/05/05 03:39:43;;;;;;;6.22;3.67;;;7.70;99.90;;;;;;6252316;28;20088;-78
2021/05/05 03:42:44;;;;;;;8.13;5.22;;;7.70;99.90;;;;;;6254126;28;20137;-79
2021/05/05 03:45:46;;;;;;;6.50;3.50;;;7.70;99.90;;;;;;6254245;28;20083;-79
2021/05/05 03:48:47;;;;;;;6.97;3.33;;;7.70;99.90;;;;;;6252772;28;20041;-79
2021/05/05 03:51:49;;;;;;;7.70;5.07;;;7.70;99.90;;;;;;6254140;28;20057;-79
2021/05/05 03:54:51;;;;;;;6.05;3.35;;;7.60;99.90;;;;;;6253333;28;20086;-78
2021/05/05 03:57:53;;;;;;;4.38;3.90;;;7.60;99.90;;;;;;6253031;28;20076;-79
2021/05/05 04:00:54;;;;;;;4.72;3.55;;;7.60;99.90;;;;;;6252722;28;20084;-78
2021/05/05 04:03:55;;;;;;;6.22;3.60;;;7.60;99.90;;;;;;6253466;28;20481;-78
2021/05/05 04:06:57;;;;;;;8.85;4.78;;;7.60;99.90;;;;;;6254719;28;20091;-80
2021/05/05 04:09:59;;;;;;;7.78;4.07;;;7.60;99.90;;;;;;6254111;28;20153;-79
2021/05/05 04:13:01;;;;;;;5.90;3.58;;;7.60;99.90;;;;;;6254890;28;20085;-79
2021/05/05 04:16:02;;;;;;;5.68;3.50;;;7.50;99.90;;;;;;6254796;28;20476;-80
2021/05/05 04:19:04;;;;;;;9.55;4.13;;;7.50;99.90;;;;;;6252474;28;20087;-78
2021/05/05 04:22:05;;;;;;;5.35;3.83;;;7.60;99.90;;;;;;6253058;28;20056;-79
2021/05/05 04:25:09;;;;;;;10.52;4.57;;;7.60;99.90;;;;;;6254154;28;20132;-79
2021/05/05 04:28:10;;;;;;;9.15;3.25;;;7.60;99.90;;;;;;6253442;28;20593;-78
2021/05/05 04:31:12;;;;;;;13.23;3.40;;;7.60;99.90;;;;;;6251769;28;20050;-78
2021/05/05 04:34:13;;;;;;;5.18;3.90;;;7.60;99.90;;;;;;6252950;28;20118;-79
2021/05/05 04:37:15;;;;;;;8.07;4.03;;;7.60;99.90;;;;;;6251909;28;20045;-79
2021/05/05 04:40:17;;;;;;;9.13;3.60;;;7.60;99.90;;;;;;6251540;28;20100;-78
2021/05/05 04:43:18;;;;;;;12.75;4.68;;;7.60;99.90;;;;;;6252479;28;20049;-79
2021/05/05 04:46:20;;;;;;;6.40;3.10;;;7.60;99.90;;;;;;6252226;28;20128;-79
2021/05/05 04:49:21;;;;;;;8.50;4.05;;;7.70;99.90;;;;;;6256868;28;20550;-79
2021/05/05 04:52:22;;;;;;;8.00;3.65;;;7.70;99.90;;;;;;6261622;28;20041;-78
2021/05/05 04:55:25;;;;;;;4.40;3.25;;;7.70;99.90;;;;;;6251519;28;20081;-79
2021/05/05 04:58:26;;;;;;;8.40;3.65;;;7.70;99.90;;;;;;6253362;28;20124;-79
2021/05/05 05:01:27;;;;;;;7.97;3.50;;;7.70;99.90;;;;;;6253212;28;20049;-79
2021/05/05 05:04:29;;;;;;;5.47;4.07;;;7.80;99.90;;;;;;6253136;28;20101;-79
2021/05/05 05:07:30;;;;;;;10.48;3.22;;;7.90;99.90;;;;;;6252079;28;20140;-79
2021/05/05 05:10:32;;;;;;;6.15;4.13;;;7.80;99.90;;;;;;6253617;28;20053;-79
2021/05/05 05:13:34;;;;;;;5.20;3.17;;;7.80;99.90;;;;;;6253167;28;20065;-79
2021/05/05 05:16:35;;;;;;;7.45;3.85;;;7.90;99.90;;;;;;6253557;28;20526;-79
2021/05/05 05:19:36;;;;;;;4.32;3.30;;;8.10;99.90;;;;;;6253746;28;20077;-79
2021/05/05 05:22:38;;;;;;;6.20;2.97;;;8.20;99.90;;;;;;6252515;28;20129;-79
2021/05/05 05:25:40;;;;;;;11.15;4.72;;;8.20;99.90;;;;;;6251213;28;20284;-80
2021/05/05 05:28:41;;;;;;;3.60;3.10;;;8.20;99.90;;;;;;6253187;28;20071;-79
2021/05/05 05:31:42;;;;;;;5.97;3.40;;;8.30;99.90;;;;;;6253204;28;20049;-79
2021/05/05 05:34:44;;;;;;;5.82;4.13;;;8.50;99.90;;;;;;6253618;28;20197;-79
2021/05/05 05:37:45;;;;;;;9.02;3.85;;;8.60;99.90;;;;;;6252340;28;20080;-79
2021/05/05 05:40:48;;;;;;;5.03;4.45;;;8.50;99.90;;;;;;6250588;28;20045;-78
2021/05/05 05:43:49;;;;;;;7.22;4.15;;;8.40;99.90;;;;;;6253127;28;20049;-79
2021/05/05 05:46:50;;;;;;;9.50;4.80;;;8.20;99.90;;;;;;6251224;28;20049;-79
2021/05/05 05:49:52;;;;;;;10.98;4.20;;;8.30;99.90;;;;;;6252223;28;20069;-78
2021/05/05 05:52:53;;;;;;;14.27;8.23;;;8.70;99.90;;;;;;6252115;28;20124;-80
2021/05/05 05:55:55;;;;;;;12.50;3.95;;;9.20;99.90;;;;;;6253932;28;20053;-80
2021/05/05 05:58:57;;;;;;;11.90;3.38;;;9.50;99.90;;;;;;6252010;28;20108;-79
2021/05/05 06:01:58;;;;;;;4.93;3.33;;;9.60;99.90;;;;;;6252439;28;20136;-79
2021/05/05 06:04:59;;;;;;;6.75;3.03;;;9.70;99.90;;;;;;6242654;28;20045;-80
2021/05/05 06:08:01;;;;;;;8.65;3.75;;;9.70;99.90;;;;;;6252004;28;20188;-80
2021/05/05 06:11:04;;;;;;;6.78;3.35;;;9.80;99.90;;;;;;6250668;28;20050;-77
2021/05/05 06:14:05;;;;;;;5.78;3.05;;;9.90;99.90;;;;;;6249171;28;20046;-78
2021/05/05 06:17:06;;;;;;;7.63;2.80;;;10.00;99.90;;;;;;6248284;28;20111;-78
2021/05/05 06:20:10;;;;;;;4.72;2.83;;;10.20;99.90;;;;;;6247522;28;20116;-78
2021/05/05 06:23:11;;;;;;;6.50;2.88;;;10.50;99.90;;;;;;6247770;28;20093;-78
2021/05/05 06:26:14;;;;;;;4.97;2.85;;;10.60;99.90;;;;;;6247363;28;20045;-78
2021/05/05 06:29:15;;;;;;;6.55;3.10;;;10.50;99.90;;;;;;6247514;28;20042;-78
2021/05/05 06:32:17;;;;;;;6.35;2.45;;;10.50;99.90;;;;;;6248652;28;20046;-78
2021/05/05 06:35:18;;;;;;;3.65;3.05;;;10.70;99.90;;;;;;6247874;28;20077;-78
2021/05/05 06:38:19;;;;;;;5.80;2.40;;;10.90;99.20;;;;;;6249339;28;20057;-78
2021/05/05 06:41:22;;;;;;;6.13;2.55;;;11.10;96.70;;;;;;6251227;28;20128;-78
2021/05/05 06:44:23;;;;;;;7.93;2.30;;;11.20;94.50;;;;;;6249025;28;20124;-78
2021/05/05 06:47:24;;;;;;;7.47;2.75;;;11.20;93.80;;;;;;6248659;28;20095;-78
2021/05/05 06:50:27;;;;;;;13.88;2.97;;;11.40;93.50;;;;;;6247966;28;20159;-78
2021/05/05 06:53:29;;;;;;;5.82;2.03;;;11.60;91.10;;;;;;6247384;28;20052;-77
2021/05/05 06:56:31;;;;;;;6.40;1.73;;;11.90;87.30;;;;;;6246875;28;20052;-78
2021/05/05 06:59:33;;;;;;;3.60;2.15;;;12.10;85.60;;;;;;6247197;28;20144;-78
2021/05/05 07:02:34;;;;;;;4.68;2.00;;;11.80;83.70;;;;;;6249286;28;20096;-78
2021/05/05 07:05:35;;;;;;;10.60;2.22;;;11.40;84.00;;;;;;6251929;28;20148;-77
2021/05/05 07:08:37;;;;;;;12.00;2.35;;;11.40;84.70;;;;;;6251491;28;20059;-77
2021/05/05 07:11:39;;;;;;;6.45;1.83;;;11.80;84.00;;;;;;6251647;28;20077;-78
2021/05/05 07:14:40;;;;;;;10.60;2.90;;;12.10;80.80;;;;;;6254298;28;20053;-78
2021/05/05 07:17:41;;;;;;;7.90;2.45;;;12.20;77.70;;;;;;6252324;28;20105;-77
2021/05/05 07:20:44;;;;;;;11.02;2.65;;;12.10;77.70;;;;;;6253506;28;20116;-79
2021/05/05 07:23:45;;;;;;;4.35;2.13;;;12.20;77.30;;;;;;6256167;28;20439;-79
2021/05/05 07:26:47;;;;;;;3.70;1.73;;;12.30;78.20;;;;;;6254991;28;20458;-79
2021/05/05 07:29:48;;;;;;;9.40;2.10;;;12.50;76.90;;;;;;6252443;28;20084;-78
2021/05/05 07:32:50;;;;;;;5.13;1.42;;;12.60;75.50;;;;;;6252910;28;20077;-79
2021/05/05 07:35:54;;;;;;;11.57;2.40;;;12.80;74.00;;;;;;6255333;28;20491;-79
2021/05/05 07:39:15;;;;;;;7.13;1.92;;;12.80;72.00;;;;;;6254306;28;20140;-79
2021/05/05 07:45:42;;;;;;;6.18;1.70;;;13.00;70.50;;;;;;6253364;28;20069;-77
2021/05/05 07:48:49;;;;;;;7.15;2.80;;;12.90;70.90;;;;;;6255194;28;20041;-78
2021/05/05 07:51:51;;;;;;;6.10;1.83;;;12.70;70.30;;;;;;6255532;28;20140;-79
2021/05/05 07:54:52;;;;;;;3.67;1.33;;;12.80;70.10;;;;;;6254614;28;20114;-79
2021/05/05 07:57:54;;;;;;;7.43;1.77;;;12.80;69.80;;;;;;6253723;28;20053;-78
2021/05/05 08:00:56;;;;;;;4.95;1.42;;;12.50;68.70;;;;;;6255065;28;20144;-80
2021/05/05 08:03:58;;;;;;;5.68;1.60;;;12.40;69.40;;;;;;6245266;28;20420;-78
2021/05/05 08:07:00;;;;;;;8.02;2.22;;;12.90;70.00;;;;;;6252526;28;20053;-78
2021/05/05 08:10:01;;;;;;;5.32;1.38;;;13.40;68.40;;;;;;6251633;28;20049;-78
2021/05/05 08:13:03;;;;;;;24.15;5.45;;;13.80;66.60;;;;;;6253347;28;20080;-80
2021/05/05 08:16:06;;;;;;;8.70;2.75;;;14.00;64.00;;;;;;6254207;28;20470;-80
2021/05/05 08:19:07;;;;;;;5.45;3.20;;;14.10;64.60;;;;;;6254255;28;20120;-79
2021/05/05 08:22:09;;;;;;;7.10;2.95;;;14.40;64.10;;;;;;6255398;28;20073;-79
2021/05/05 08:25:11;;;;;;;11.18;2.90;;;14.80;61.50;;;;;;6254457;28;20128;-79
2021/05/05 08:28:13;;;;;;;9.40;2.10;;;14.80;60.10;;;;;;6253318;28;20120;-79
2021/05/05 08:31:15;;;;;;;4.80;2.13;;;14.60;62.00;;;;;;6255360;28;20136;-79
2021/05/05 08:34:16;;;;;;;3.83;2.17;;;14.80;59.90;;;;;;6253448;28;20118;-80
2021/05/05 08:37:17;;;;;;;13.10;2.28;;;15.10;58.80;;;;;;6253832;28;20084;-79
2021/05/05 08:40:21;;;;;;;16.02;5.82;;;15.30;58.60;;;;;;6254441;28;20052;-80
2021/05/05 08:43:23;;;;;;;3.70;1.75;;;15.20;58.40;;;;;;6256676;28;20061;-80
2021/05/05 08:46:25;;;;;;;7.00;2.05;;;14.60;57.40;;;;;;6256014;28;20041;-79
2021/05/05 08:49:27;;;;;;;6.28;2.35;;;14.50;58.90;;;;;;6255260;28;20113;-79
2021/05/05 08:52:29;;;;;;;6.57;2.63;;;14.60;56.60;;;;;;6254942;28;20186;-80
2021/05/05 08:55:31;;;;;;;8.00;1.88;;;14.30;55.40;;;;;;6257136;28;20056;-78
2021/05/05 08:58:33;;;;;;;7.03;2.25;;;14.10;57.30;;;;;;6261361;28;20529;-79
2021/05/05 09:01:35;;;;;;;7.32;2.85;;;13.80;58.20;;;;;;6252278;28;20057;-79
2021/05/05 09:04:36;;;;;;;8.90;3.47;;;13.10;62.70;;;;;;6245297;28;20534;-79
2021/05/05 09:07:40;;;;;;;5.78;2.30;;;12.40;68.20;;;;;;6252377;28;20076;-79
2021/05/05 09:10:56;;;;;;;7.03;2.25;;;12.40;71.00;;;;;;6251261;28;20537;-79
2021/05/05 09:13:59;;;;;;;6.57;1.70;;;12.40;67.90;;;;;;6250970;28;20048;-79
2021/05/05 09:17:00;;;;;;;5.82;2.60;;;12.50;65.90;;;;;;6251341;28;20511;-78
2021/05/05 09:20:16;;;;;;;6.43;1.83;;;12.70;64.70;;;;;;6275375;22;20080;-73
2021/05/05 09:23:21;;;;;;;9.38;1.73;;;12.90;65.20;;;;;;6272512;28;20057;-73
2021/05/05 09:26:34;;;;;;;9.98;2.45;;;13.50;63.80;;;;;;6270627;28;20120;-73
2021/05/05 09:29:42;;;;;;;5.32;1.65;;;14.20;61.70;;;;;;6271506;28;20049;-72
2021/05/05 09:32:51;;;;;;;3.47;1.40;;;14.80;58.50;;;;;;6271403;28;20037;-72
2021/05/05 09:35:54;;;;;;;11.68;2.72;;;15.40;58.10;;;;;;6271371;28;20529;-74
2021/05/05 09:38:56;;;;;;;6.05;1.52;;;15.90;56.10;;;;;;6271569;28;20508;-73
2021/05/05 09:41:58;;;;;;;6.55;2.22;;;15.70;55.30;;;;;;6271419;28;20417;-73
2021/05/05 09:45:01;;;;;;;4.25;1.63;;;15.00;55.20;;;;;;6271375;28;20136;-73
2021/05/05 09:48:03;;;;;;;4.70;1.48;;;14.10;55.60;;;;;;6271343;28;20409;-74
2021/05/05 09:51:04;;;;;;;3.13;1.30;;;13.20;58.60;;;;;;6271277;28;20140;-74
2021/05/05 09:54:06;;;;;;;4.00;1.15;;;12.50;62.40;;;;;;6271041;28;20049;-73
2021/05/05 09:57:14;;;;;;;1.88;1.17;;;11.10;70.00;;;;;;6270945;28;20421;-74
2021/05/05 10:00:18;;;;;;;3.08;2.17;;;9.50;76.20;;;;;;6270904;28;20049;-73
2021/05/05 10:03:34;;;;;;;3.05;1.65;;;8.30;84.50;;;;;;6271049;28;20093;-73
2021/05/05 10:06:37;;;;;;;4.95;2.22;;;7.60;90.20;;;;;;6249214;28;20045;-74
2021/05/05 10:09:39;;;;;;;8.82;2.58;;;7.30;94.10;;;;;;6245698;28;20049;-73
2021/05/05 10:12:40;;;;;;;6.55;2.03;;;7.10;97.00;;;;;;6248614;28;20068;-73
2021/05/05 10:15:42;;;;;;;2.20;2.00;;;7.10;99.90;;;;;;6270888;28;20136;-73
2021/05/05 10:18:46;;;;;;;3.10;2.17;;;7.20;99.90;;;;;;6270640;28;20503;-73
2021/05/05 10:21:52;;;;;;;2.38;2.05;;;7.30;99.90;;;;;;6270965;28;20102;-73
2021/05/05 10:24:54;;;;;;;4.78;1.50;;;7.80;99.90;;;;;;6270619;28;20517;-73
2021/05/05 10:27:57;;;;;;;2.97;2.30;;;8.30;99.90;;;;;;6270644;28;20065;-73
2021/05/05 10:30:59;;;;;;;6.57;1.70;;;8.60;99.90;;;;;;6270723;28;20045;-74
2021/05/05 10:34:01;;;;;;;2.08;1.85;;;9.10;99.90;;;;;;6270285;28;20422;-74
2021/05/05 10:37:04;;;;;;;1.88;1.75;;;9.60;99.90;;;;;;6271533;28;20131;-73
2021/05/05 10:40:15;;;;;;;2.22;1.67;;;9.90;99.90;;;;;;6275270;28;20051;-72
2021/05/05 10:43:17;;;;;;;2.92;1.83;;;10.10;99.60;;;;;;6275821;28;20053;-73
2021/05/05 10:46:30;;;;;;;2.53;1.90;;;10.30;97.90;;;;;;6275465;28;20049;-73
2021/05/05 10:49:32;;;;;;;2.25;1.75;;;10.40;98.00;;;;;;6274768;28;20088;-73
2021/05/05 10:53:01;;;;;;;3.75;2.10;;;10.60;96.90;;;;;;6275318;28;20120;-73
2021/05/05 10:56:02;;;;;;;4.07;2.55;;;10.80;96.00;;;;;;6274953;28;20048;-73
2021/05/05 10:59:07;;;;;;;6.22;2.17;;;11.00;94.50;;;;;;6275025;28;20080;-73
2021/05/05 11:02:09;;;;;;;5.65;2.10;;;11.40;92.10;;;;;;6274741;28;20045;-73
2021/05/05 11:05:12;;;;;;;6.90;1.80;;;11.50;89.70;;;;;;6274838;28;20056;-73
2021/05/05 11:08:27;;;;;;;4.18;1.58;;;11.60;84.40;;;;;;6248584;28;20580;-72
2021/05/05 11:11:34;;;;;;;2.53;1.38;;;11.70;84.10;;;;;;6250534;28;20135;-73
2021/05/05 11:14:48;;;;;;;3.35;1.20;;;11.90;80.50;;;;;;6267729;28;20052;-73
2021/05/05 11:17:50;;;;;;;1.70;1.60;;;12.10;78.90;;;;;;6274731;28;20128;-73
2021/05/05 11:20:52;;;;;;;2.47;2.28;;;12.20;78.30;;;;;;6273793;28;20403;-73
2021/05/05 11:23:54;;;;;;;2.70;1.85;;;12.70;78.80;;;;;;6274352;28;20413;-74
2021/05/05 11:26:55;;;;;;;2.90;1.10;;;13.30;75.30;;;;;;6274701;28;20053;-73
2021/05/05 11:29:57;;;;;;;5.47;1.30;;;13.60;71.10;;;;;;6273961;28;20124;-73
2021/05/05 11:32:59;;;;;;;4.22;1.60;;;13.50;70.20;;;;;;6274404;28;20135;-73
2021/05/05 11:36:15;;;;;;;2.63;1.30;;;13.40;70.30;;;;;;6273500;28;20410;-73
2021/05/05 11:39:21;;;;;;;2.10;1.50;;;13.10;70.80;;;;;;6274356;28;20057;-73
2021/05/05 11:42:24;;;;;;;3.85;1.92;;;12.70;71.30;;;;;;6274184;28;20095;-73
2021/05/05 11:45:25;;;;;;;5.10;2.33;;;12.20;75.70;;;;;;6273997;28;20102;-73
2021/05/05 11:48:37;;;;;;;4.65;1.92;;;11.90;80.60;;;;;;6273017;28;20044;-73
2021/05/05 11:51:38;;;;;;;4.65;3.40;;;11.80;81.10;;;;;;6274256;28;20052;-73
2021/05/05 11:54:39;;;;;;;5.32;1.92;;;11.50;85.00;;;;;;6273488;28;20080;-73
2021/05/05 11:57:44;;;;;;;1.95;1.17;;;11.30;85.80;;;;;;6273680;28;20135;-73
2021/05/05 12:00:45;;;;;;;3.83;1.40;;;10.90;82.80;;;;;;6273303;28;20055;-73
2021/05/05 12:03:48;;;;;;;1.50;1.40;;;10.80;86.20;;;;;;6273253;28;20126;-73
2021/05/05 12:06:54;;;;;;;1.50;1.40;;;11.20;88.00;;;;;;6267911;28;20053;-73
2021/05/05 12:09:56;;;;;;;2.33;1.80;;;11.80;86.00;;;;;;6269936;28;20410;-73
2021/05/05 12:13:03;;;;;;;2.80;1.00;;;12.50;83.90;;;;;;6273147;28;20391;-74
2021/05/05 12:16:07;;;;;;;8.27;1.73;;;13.30;77.80;;;;;;6273274;28;20493;-74
2021/05/05 12:19:10;;;;;;;3.17;1.08;;;13.60;74.20;;;;;;6273233;28;20144;-74
2021/05/05 12:22:14;;;;;;;1.42;1.15;;;13.70;70.20;;;;;;6273288;28;20415;-75
2021/05/05 12:25:18;;;;;;;2.72;1.50;;;13.80;69.40;;;;;;6273248;28;20138;-74
2021/05/05 12:28:20;;;;;;;4.63;2.35;;;13.60;68.10;;;;;;6273029;28;20127;-74
2021/05/05 12:31:22;;;;;;;40.88;26.17;;;13.80;67.60;;;;;;6273048;28;20769;-74
2021/05/05 12:34:25;;;;;;;20.52;13.73;;;13.70;67.40;;;;;;6272700;28;20163;-74
2021/05/05 12:37:26;;;;;;;4.00;2.95;;;13.60;67.40;;;;;;6272850;28;20102;-74
2021/05/05 12:40:28;;;;;;;5.00;4.50;;;13.30;68.50;;;;;;6272620;28;20041;-74
2021/05/05 12:43:30;;;;;;;6.82;2.85;;;13.20;70.30;;;;;;6273278;28;20136;-74
2021/05/05 12:46:33;;;;;;;3.92;2.17;;;13.00;70.10;;;;;;6272488;28;20133;-74
2021/05/05 12:49:36;;;;;;;9.10;7.25;;;12.80;70.30;;;;;;6272361;28;20103;-74
2021/05/05 12:52:39;;;;;;;3.30;1.83;;;12.40;70.30;;;;;;6272501;28;20044;-73
2021/05/05 12:55:42;;;;;;;5.03;3.35;;;12.00;73.30;;;;;;6272998;28;20052;-74
2021/05/05 12:58:44;;;;;;;2.25;1.67;;;12.10;77.40;;;;;;6272154;28;20075;-74
2021/05/05 13:01:48;;;;;;;3.58;2.25;;;12.10;75.00;;;;;;6272028;28;20141;-74
2021/05/05 13:04:52;;;;;;;4.93;4.40;;;12.20;74.70;;;;;;6272138;28;20513;-74
2021/05/05 13:07:54;;;;;;;4.38;3.15;;;12.40;73.20;;;;;;6265760;28;20042;-74
2021/05/05 13:10:55;;;;;;;3.53;3.03;;;12.60;70.90;;;;;;6246425;28;20143;-74
2021/05/05 13:14:01;;;;;;;4.18;2.25;;;12.70;66.50;;;;;;6259943;28;20132;-74
2021/05/05 13:17:21;;;;;;;5.10;1.92;;;13.10;67.10;;;;;;6272029;28;20045;-74
2021/05/05 13:20:35;;;;;;;1.85;1.50;;;13.30;65.90;;;;;;6271241;28;20457;-74
2021/05/05 13:30:32;;;;;;;1.63;1.20;;;13.80;62.70;;;;;;6271228;28;20476;-74
2021/05/05 13:33:33;;;;;;;1.73;1.00;;;14.10;60.20;;;;;;6271537;28;20056;-74
2021/05/05 13:37:00;;;;;;;3.80;1.42;;;14.20;59.30;;;;;;6271244;28;20087;-74
2021/05/05 13:40:01;;;;;;;2.25;1.27;;;14.50;59.20;;;;;;6270253;28;20060;-74
2021/05/05 13:43:08;;;;;;;3.13;1.20;;;14.50;57.20;;;;;;6272060;28;20145;-74
2021/05/05 13:46:17;;;;;;;3.17;0.80;;;14.60;55.30;;;;;;6271583;28;20049;-74
2021/05/05 13:49:23;;;;;;;1.60;1.45;;;14.60;55.70;;;;;;6271204;28;20144;-74
2021/05/05 13:52:26;;;;;;;4.45;0.75;;;14.50;51.90;;;;;;6270746;28;20556;-74
2021/05/05 13:55:28;;;;;;;1.48;0.77;;;14.60;51.70;;;;;;6272106;28;20127;-75
2021/05/05 13:58:29;;;;;;;1.40;0.73;;;14.70;49.30;;;;;;6271023;28;20064;-75
2021/05/05 14:01:30;;;;;;;3.80;1.20;;;14.90;49.10;;;;;;6271129;28;20132;-74
2021/05/05 14:04:32;;;;;;;2.15;0.90;;;14.70;49.10;;;;;;6270764;28;20615;-74
2021/05/05 14:07:36;;;;;;;2.35;1.00;;;14.60;50.30;;;;;;6271110;28;20152;-74
2021/05/05 14:10:37;;;;;;;2.95;1.23;;;14.70;50.00;;;;;;6248890;28;20037;-74
2021/05/05 14:13:39;;;;;;;2.42;0.80;;;14.80;48.50;;;;;;6255772;28;20052;-74
2021/05/05 14:16:40;;;;;;;1.30;0.90;;;14.80;49.00;;;;;;6270913;28;20048;-74
2021/05/05 14:19:42;;;;;;;1.25;0.73;;;14.80;48.90;;;;;;6270723;28;20506;-74
2021/05/05 14:22:44;;;;;;;3.28;0.60;;;15.00;47.80;;;;;;6270958;28;20628;-74
2021/05/05 14:25:48;;;;;;;1.40;0.88;;;15.10;48.50;;;;;;6271149;28;20056;-75
2021/05/05 14:28:49;;;;;;;4.65;2.45;;;15.10;49.80;;;;;;6270514;28;20045;-74
2021/05/05 14:31:51;;;;;;;2.42;1.10;;;15.10;50.00;;;;;;6270915;28;20048;-74
2021/05/05 14:34:52;;;;;;;1.83;1.52;;;15.20;48.20;;;;;;6270994;28;20524;-74
2021/05/05 14:37:59;;;;;;;6.07;1.17;;;15.30;48.10;;;;;;6270877;28;20057;-75
2021/05/05 14:41:04;;;;;;;2.15;1.08;;;15.30;47.10;;;;;;6270177;28;20103;-74
2021/05/05 14:44:09;;;;;;;3.20;1.67;;;15.30;46.20;;;;;;6270777;28;20041;-74
2021/05/05 14:50:31;;;;;;;1.73;1.27;;;15.50;44.80;;;;;;6270761;28;20048;-73
2021/05/05 14:53:34;;;;;;;3.38;3.03;;;15.80;43.60;;;;;;6270417;28;20102;-74
2021/05/05 14:56:36;;;;;;;5.22;2.72;;;15.90;42.40;;;;;;6270839;28;20176;-74
2021/05/05 14:59:37;;;;;;;8.77;2.08;;;15.90;42.20;;;;;;6270432;28;20565;-74
2021/05/05 15:02:39;;;;;;;2.65;1.48;;;15.80;42.20;;;;;;6270463;28;20091;-74
2021/05/05 15:05:40;;;;;;;1.98;1.10;;;15.50;42.30;;;;;;6270128;28;20049;-75
2021/05/05 15:08:46;;;;;;;8.65;3.35;;;15.30;43.20;;;;;;6270126;28;20037;-74
2021/05/05 15:28:58;;;;;;;0.98;0.90;;;13.60;54.20;;;;;;6280045;28;20044;-77
2021/05/05 15:35:28;;;;;;;1.25;0.80;;;13.40;54.20;;;;;;6278189;28;20045;-79
2021/05/05 15:38:33;;;;;;;5.03;1.13;;;13.20;54.60;;;;;;6279448;28;20121;-78
2021/05/05 15:41:39;;;;;;;2.03;0.60;;;13.20;54.70;;;;;;6278978;28;20064;-77
2021/05/05 15:44:46;;;;;;;3.00;1.13;;;13.10;53.80;;;;;;6278979;28;20037;-79
2021/05/05 15:47:48;;;;;;;0.70;0.70;;;13.10;52.70;;;;;;6278177;28;20084;-80
2021/05/05 15:50:50;;;;;;;3.45;1.33;;;13.10;51.90;;;;;;6278069;28;20087;-78
2021/05/05 15:53:53;;;;;;;1.02;0.90;;;13.00;52.20;;;;;;6277614;28;20048;-79
2021/05/05 15:56:57;;;;;;;2.22;0.98;;;12.90;52.70;;;;;;6280790;28;20051;-78
2021/05/05 16:00:04;;;;;;;1.38;0.82;;;12.80;54.00;;;;;;6281103;28;20067;-78
2021/05/05 16:03:19;;;;;;;0.68;0.68;;;12.70;54.70;;;;;;6280965;28;20053;-79
2021/05/05 16:13:16;;;;;;;2.17;1.15;;;12.30;57.60;;;;;;6261561;28;20050;-78
2021/05/05 16:16:17;;;;;;;1.77;1.67;;;12.30;58.30;;;;;;6278807;28;20413;-78
2021/05/05 16:19:21;;;;;;;2.38;1.83;;;12.20;58.60;;;;;;6277554;28;20410;-78
2021/05/05 16:22:27;;;;;;;2.10;1.40;;;12.20;59.30;;;;;;6277610;28;20142;-79
2021/05/05 16:25:32;;;;;;;2.80;2.00;;;12.10;59.40;;;;;;6278726;28;20071;-77
2021/05/05 16:28:48;;;;;;;2.08;1.70;;;11.90;60.40;;;;;;6277766;28;20049;-77
2021/05/05 16:48:31;;;;;;;3.47;1.10;;;11.50;59.90;;;;;;6280387;28;20052;-78
2021/05/05 16:51:45;;;;;;;2.42;1.50;;;11.50;60.50;;;;;;6278811;28;20073;-78
2021/05/05 16:54:47;;;;;;;5.18;1.23;;;11.60;59.70;;;;;;6279155;28;20094;-79